Weather observations for the past three days for
Greater Portsmouth Regional Airport
Imperial (Metric)
Date Time (edt) Wind (mph) Vis. (mi.) Weather Sky Cond. Temperature (ºF) Relative Humidity Wind Chill (°F) Heat Index (°F) Pressure Precipitation (in)
Air Dwpt 6 hour altimeter (in) sea level (mb) 1 hr 3 hr 6 hr
Max. Min.
31 01:35 Calm 0.50 Fog VV005 69.8 69.8 100% 30.1 0.0
31 01:15 SE 2 7.00 Fog/Mist CLR 69.8 69.8 100% 30.1 0.0
31 00:55 S 1 5.00 Fog/Mist CLR 69.8 69.8 100% 30.1 0.0
31 00:35 SE 1 9.00 Fair CLR 71.6 71.6 100% 30.1 0.0
31 00:15 S 1 7.00 Fog/Mist CLR 71.6 71.6 100% 30.1 0.0
30 23:35 Calm 10.00 Fair CLR 71.6 71.6 100% 30.11 0.0
30 23:15 Calm 10.00 Fair CLR 73.4 73.4 100% 30.11 0.0
30 22:55 N 1 10.00 Fair CLR 75.2 75.2 100% 73 30.11 0.0
30 22:36 N 2 10.00 Fair CLR 75.2 75.2 100% 73 30.11 0.0
30 22:16 S 2 10.00 Fair CLR 75.2 75.2 100% 73 30.11 0.0
30 21:55 SE 2 10.00 Fair CLR 77 75.2 94% 78 30.1 0.0
30 21:35 Calm 10.00 Fair CLR 77 75.2 94% 78 30.1 0.0
30 21:16 S 3 10.00 Fair CLR 75.2 73.4 94% 74 30.09 0.0
30 20:55 Calm 10.00 Fair CLR 77 75.2 94% 78 30.09 0.0
30 20:35 N 1 10.00 Fair CLR 78.8 75.2 89% 82 30.08 0.0
30 20:15 S 1 10.00 Fair CLR 78.8 75.2 89% 82 30.07 0.0
30 19:55 W 1 10.00 Fair CLR 80.6 75.2 92.8 81.3 84% 86 30.07 0.0
30 19:35 S 2 10.00 Fair CLR 84.2 73.4 70% 91 30.06 0.0
30 19:15 SW 2 10.00 Fair CLR 86 69.8 59% 91 30.06 0.0
30 18:55 Vrbl 2 10.00 Fair CLR 87.8 69.8 55% 93 30.07 0.0
30 18:35 Vrbl 2 10.00 Fair CLR 87.8 68 52% 91 30.06 0.0
30 18:15 Vrbl 6 10.00 Fair CLR 87.8 68 52% 91 30.05 0.0
30 17:55 S 6 10.00 Fair CLR 89.6 68 49% 93 30.05 0.0
30 17:35 Vrbl 2 10.00 Fair CLR 87.8 66.2 49% 90 30.06 0.0
30 17:15 Vrbl 3 10.00 Fair CLR 89.6 66.2 46% 92 30.07 0.0
30 16:55 SW 6 10.00 Fair CLR 91.4 66.2 44% 94 30.07 0.0
30 16:35 NW 7 10.00 A Few Clouds FEW060 FEW075 FEW110 89.6 68 49% 93 30.08 0.0
30 16:15 W 9 10.00 Partly Cloudy SCT060 89.6 68 49% 93 30.09 0.0
30 15:55 Vrbl 2 10.00 A Few Clouds FEW060 91.4 66.2 44% 94 30.09 0.0
30 15:35 Vrbl 6 10.00 A Few Clouds FEW060 89.6 66.2 46% 92 30.1 0.0
30 15:15 Vrbl 5 10.00 A Few Clouds FEW060 91.4 68 46% 96 30.1 0.0
30 14:55 NW 10 G 16 10.00 Partly Cloudy SCT060 93.2 68 44% 98 30.11 0.0
30 14:35 Vrbl 2 10.00 Partly Cloudy SCT080 SCT100 89.6 69.8 52% 95 30.12 0.0
30 14:15 Vrbl 7 10.00 Mostly Cloudy FEW050 BKN070 BKN100 87.8 69.8 55% 93 30.13 0.0
30 13:55 W 9 10.00 A Few Clouds FEW050 FEW080 89.6 68 91.2 63.7 49% 93 30.13 0.0
30 13:35 Vrbl 5 10.00 A Few Clouds FEW049 91.4 69.8 49% 97 30.14 0.0
30 13:15 Vrbl 6 10.00 Fair CLR 89.6 73.4 59% 98 30.14 0.0
30 12:55 Vrbl 2 10.00 Fair CLR 87.8 75.2 66% 98 30.15 0.0
30 12:31 Vrbl 3 10.00 Fair CLR 86 77 75% 97 30.15 0.0
30 12:15 S 5 10.00 Fair CLR 86 75.2 70% 95 30.15 0.0
30 11:55 Vrbl 5 10.00 Fair CLR 84.2 75.2 74% 92 30.16 0.0
30 11:35 Vrbl 6 10.00 Fair CLR 84.2 75.2 74% 92 30.16 0.0
30 11:15 Vrbl 5 10.00 Fair CLR 82.4 75.2 79% 89 30.16 0.0
30 10:55 Vrbl 5 10.00 Fair CLR 80.6 75.2 84% 86 30.15 0.0
30 10:35 SE 8 10.00 Fair CLR 77 73.4 89% 78 30.15 0.0
30 10:15 SE 7 10.00 Fair CLR 75.2 73.4 94% 74 30.15 0.0
30 09:55 S 6 10.00 A Few Clouds FEW070 73.4 71.6 94% 30.15 0.0
30 09:35 SE 6 10.00 A Few Clouds FEW070 71.6 71.6 100% 30.15 0.0
30 09:15 SE 5 10.00 A Few Clouds FEW070 69.8 69.8 100% 30.15 0.0
30 08:55 SE 2 10.00 Partly Cloudy SCT070 68 68 100% 30.15 0.0
30 08:35 S 3 10.00 Mostly Cloudy BKN070 66.2 66.2 100% 30.15 0.0
30 08:15 S 2 7.00 Fog/Mist SCT070 64.4 64.4 100% 30.14 0.0
30 07:56 Calm 7.00 A Few Clouds FEW070 64.4 64.4 100% 30.14 0.0
30 07:35 SE 2 6.00 Fog/Mist CLR 64.4 64.4 100% 30.14 0.0
30 07:15 S 2 8.00 Fair CLR 64.4 64.4 100% 30.13 0.0
30 06:55 Calm 7.00 Fog/Mist CLR 64.4 64.4 100% 30.13 0.0
30 06:35 S 3 5.00 Fog/Mist CLR 64.4 64.4 100% 30.13 0.0
30 06:15 Calm 10.00 Fair CLR 64.4 64.4 100% 30.13 0.0
30 05:55 W 1 8.00 Fair CLR 64.4 64.4 100% 30.13 0.0
30 05:35 N 1 9.00 Fair CLR 64.4 64.4 100% 30.13 0.0
30 05:15 N 2 10.00 Fair CLR 64.4 64.4 100% 30.13 0.0
30 04:55 SE 1 8.00 Fair CLR 62.6 62.6 100% 30.13 0.0
30 04:35 S 1 8.00 Fair CLR 62.6 62.6 100% 30.13 0.0
30 04:15 N 2 10.00 Fair CLR 62.6 62.6 100% 30.13 0.0
30 03:55 N 3 10.00 Fair CLR 62.6 62.6 100% 30.13 0.0
30 03:35 N 2 10.00 Fair CLR 62.6 62.6 100% 30.13 0.0
30 03:15 N 3 9.00 Fair CLR 62.6 62.6 100% 30.13 0.0
30 02:55 N 2 8.00 Fair CLR 64.4 64.4 100% 30.13 0.0
30 02:35 N 2 7.00 Fog/Mist CLR 64.4 64.4 100% 30.14 0.0
30 02:15 Calm 4.00 Fog/Mist CLR 64.4 64.4 100% 30.14 0.0
30 01:55 Calm 4.00 Fog/Mist CLR 64.4 64.4 77.2 64.8 100% 30.14 0.0
30 01:35 Vrbl 1 8.00 Fair CLR 64.4 64.4 100% 30.14 0.0
30 01:15 Vrbl 1 9.00 Fair CLR 66.2 66.2 100% 30.14 0.0
30 00:55 N 2 10.00 Fair CLR 66.2 66.2 100% 30.14 0.0
30 00:35 NW 1 10.00 Fair CLR 66.2 66.2 100% 30.14 0.0
30 00:15 N 2 10.00 Fair CLR 66.2 66.2 100% 30.14 0.0
29 23:55 N 3 10.00 Fair CLR 68 68 100% 30.14 0.0
29 23:35 N 1 10.00 Fair CLR 68 68 100% 30.14 0.0
29 23:15 N 2 10.00 Fair CLR 68 68 100% 30.14 0.0
29 22:55 N 2 10.00 Fair CLR 68 68 100% 30.13 0.0
29 22:35 N 2 10.00 Fair CLR 68 68 100% 30.13 0.0
29 22:15 N 2 10.00 Fair CLR 69.8 69.8 100% 30.13 0.0
29 21:55 N 3 10.00 Fair CLR 69.8 69.8 100% 30.13 0.0
29 21:35 N 1 10.00 Fair CLR 71.6 69.8 94% 30.12 0.0
29 21:15 SE 1 10.00 Fair CLR 71.6 69.8 94% 30.12 0.0
29 20:55 NW 1 10.00 Fair CLR 71.6 69.8 94% 30.12 0.0
29 20:35 NW 2 10.00 Fair CLR 75.2 69.8 83% 75 30.12 0.0
29 20:15 W 1 10.00 Fair CLR 75.2 69.8 83% 75 30.12 0.0
29 19:55 W 2 10.00 Fair CLR 77 69.8 88.5 78.1 79% 79 30.11 0.0
29 19:35 N 2 10.00 Fair CLR 80.6 68 66% 83 30.11 0.0
29 19:15 NE 5 10.00 Fair CLR 84.2 66.2 55% 87 30.11 0.0
29 18:55 NE 3 10.00 Fair CLR 86 64.4 49% 87 30.11 0.0
29 18:35 S 1 10.00 Fair CLR 86 62.6 46% 87 30.11 0.0
29 18:15 S 3 10.00 Fair CLR 86 64.4 49% 87 30.11 0.0
29 17:55 SE 5 10.00 Fair CLR 86 60.8 43% 86 30.11 0.0
29 17:35 Vrbl 2 10.00 Fair CLR 86 62.6 46% 87 30.11 0.0
29 17:15 SE 2 10.00 Fair CLR 87.8 60.8 40% 88 30.12 0.0
29 16:55 NE 6 10.00 Fair CLR 87.8 60.8 40% 88 30.12 0.0
29 16:35 Vrbl 2 10.00 Fair CLR 87.8 60.8 40% 88 30.13 0.0
29 16:15 S 5 10.00 Fair CLR 86 60.8 43% 86 30.14 0.0
29 15:55 SE 5 10.00 Fair CLR 86 62.6 46% 87 30.14 0.0
29 15:35 Vrbl 2 10.00 A Few Clouds FEW060 86 60.8 43% 86 30.14 0.0
29 15:15 SE 9 G 20 10.00 Fair CLR 87.8 62.6 43% 88 30.15 0.0
29 14:55 NE 6 10.00 Partly Cloudy SCT060 86 62.6 46% 87 30.16 0.0
29 14:35 NE 8 10.00 Partly Cloudy SCT060 87.8 64.4 46% 89 30.16 0.0
29 14:15 N 6 10.00 A Few Clouds FEW049 86 64.4 49% 87 30.17 0.0
29 13:55 Vrbl 5 10.00 Partly Cloudy SCT049 86 62.6 85.6 60.1 46% 87 30.17 0.0
29 13:35 Vrbl 2 10.00 A Few Clouds FEW047 84.2 62.6 48% 85 30.18 0.0
29 13:15 S 6 10.00 Fair CLR 84.2 64.4 51% 86 30.18 0.0
29 12:55 SE 6 10.00 Fair CLR 84.2 64.4 51% 86 30.19 0.0
29 12:34 SE 6 10.00 Fair CLR 84.2 66.2 55% 87 30.19 0.0
29 12:15 S 9 10.00 Fair CLR 82.4 68 62% 85 30.19 0.0
29 11:55 Vrbl 6 10.00 Fair CLR 80.6 69.8 70% 84 30.19 0.0
29 11:35 Vrbl 5 10.00 Fair CLR 80.6 69.8 70% 84 30.2 0.0
29 11:15 Vrbl 2 10.00 Fair CLR 77 69.8 79% 79 30.21 0.0
29 10:55 N 5 10.00 Fair CLR 75.2 69.8 83% 75 30.21 0.0
29 10:35 NE 2 10.00 Fair CLR 73.4 68 83% 30.2 0.0
29 10:13 N 3 10.00 Fair CLR 71.6 68 88% 30.21 0.0
29 09:55 Vrbl 3 10.00 Fair CLR 69.8 68 94% 30.21 0.0
29 09:35 N 6 10.00 Fair CLR 68 66.2 94% 30.2 0.0
29 09:15 Vrbl 5 10.00 Fair CLR 68 66.2 94% 30.2 0.0
29 08:55 N 5 10.00 Fair CLR 66.2 66.2 100% 30.2 0.0
29 08:35 N 5 10.00 Fair CLR 62.6 62.6 100% 30.19 0.0
29 08:15 N 3 10.00 Fair CLR 60.8 60.8 100% 30.19 0.0
29 07:55 N 3 10.00 Fair CLR 60.8 60.8 63.1 58.5 100% 30.19 0.0
29 07:35 N 3 10.00 Fair CLR 59 59 100% 30.19 0.0
29 07:15 N 2 10.00 Fair CLR 59 59 100% 30.19 0.0
29 06:55 N 3 10.00 Fair CLR 59 59 100% 30.18 0.0
29 06:35 N 5 9.00 Fair CLR 59 59 100% 30.18 0.0
29 06:15 N 3 5.00 Fog/Mist CLR 59 59 100% 30.18 0.0
29 05:55 N 2 10.00 Fair CLR 59 59 100% 30.18 0.0
29 05:35 N 3 10.00 Fair CLR 60.8 60.8 100% 30.18 0.0
29 05:15 N 5 10.00 Fair CLR 60.8 60.8 100% 30.17 0.0
29 04:55 N 5 10.00 Fair CLR 60.8 60.8 100% 30.17 0.0
29 04:35 N 3 10.00 Fair CLR 60.8 60.8 100% 30.16 0.0
29 04:15 N 2 10.00 Fair CLR 60.8 60.8 100% 30.16 0.0
29 03:55 N 3 10.00 Fair CLR 60.8 60.8 100% 30.16 0.0
29 03:35 N 5 10.00 Fair CLR 60.8 60.8 100% 30.16 0.0
29 03:15 N 2 10.00 Fair CLR 62.6 62.6 100% 30.16 0.0
29 02:55 N 3 10.00 Fair CLR 62.6 62.6 100% 30.16 0.0
29 02:35 N 5 10.00 Fair CLR 62.6 62.6 100% 30.16 0.0
29 02:15 N 5 10.00 Fair CLR 62.6 62.6 100% 30.16 0.0
29 01:55 N 3 10.00 Fair CLR 62.6 62.6 77 62.8 100% 30.16 0.0
29 01:35 N 3 10.00 Fair CLR 62.6 62.6 100% 30.16 0.0
29 01:15 N 2 10.00 Fair CLR 64.4 64.4 100% 30.16 0.0
29 00:55 N 3 10.00 Fair CLR 64.4 64.4 100% 30.16 0.0
29 00:35 N 3 10.00 Fair CLR 64.4 64.4 100% 30.16 0.0
29 00:15 N 2 10.00 Fair CLR 64.4 64.4 100% 30.15 0.0
28 23:55 N 2 10.00 Fair CLR 64.4 64.4 100% 30.15 0.0
28 23:35 N 1 10.00 Fair CLR 66.2 66.2 100% 30.15 0.0
28 23:15 N 3 10.00 Fair CLR 66.2 66.2 100% 30.14 0.0
28 22:55 N 5 10.00 Fair CLR 66.2 66.2 100% 30.14 0.0
28 22:35 N 3 10.00 Fair CLR 68 68 100% 30.14 0.0
28 22:15 N 2 10.00 Fair CLR 68 68 100% 30.14 0.0
28 21:55 N 3 10.00 Fair CLR 69.8 68 94% 30.14 0.0
28 21:35 N 2 10.00 Fair CLR 68 68 100% 30.13 0.0
28 21:15 N 3 10.00 Fair CLR 69.8 68 94% 30.12 0.0
28 20:55 N 1 10.00 Fair CLR 71.6 68 88% 30.11 0.0
28 20:35 Calm 10.00 Fair CLR 71.6 68 88% 30.1 0.0
28 20:15 W 2 10.00 Fair CLR 73.4 68 83% 30.09 0.0
28 19:55 W 1 10.00 Fair CLR 75.2 68 86.2 77.2 78% 76 30.09 0.0
28 19:35 N 2 10.00 Fair CLR 80.6 64.4 58% 82 30.08 0.0
28 19:15 N 6 10.00 Fair CLR 80.6 64.4 58% 82 30.07 0.0
28 18:55 N 8 10.00 Fair CLR 82.4 62.6 51% 83 30.08 0.0
28 18:35 N 8 10.00 Fair CLR 82.4 62.6 51% 83 30.07 0.0
28 18:15 N 7 10.00 Fair CLR 82.4 62.6 51% 83 30.07 0.0
28 17:55 N 6 10.00 A Few Clouds FEW080 82.4 62.6 51% 83 30.08 0.0
28 17:35 NE 5 10.00 Mostly Cloudy FEW050 SCT065 BKN080 84.2 60.8 45% 84 30.08 0.0
28 17:15 N 10 10.00 Partly Cloudy SCT050 SCT065 84.2 62.6 48% 85 30.08 0.0
28 16:55 NW 7 10.00 A Few Clouds FEW055 FEW065 84.2 62.6 48% 85 30.08 0.0
28 16:35 NE 8 10.00 Mostly Cloudy SCT049 BKN065 86 62.6 46% 87 30.08 0.0
28 16:15 Vrbl 6 10.00 Mostly Cloudy BKN049 BKN065 BKN085 86 64.4 49% 87 30.08 0.0
28 15:55 NE 7 10.00 Mostly Cloudy SCT049 BKN065 BKN085 84.2 60.8 45% 84 30.09 0.0
28 15:35 N 13 10.00 Mostly Cloudy FEW049 BKN085 84.2 64.4 51% 86 30.09 0.0
28 15:15 N 9 10.00 Mostly Cloudy SCT075 BKN085 82.4 62.6 51% 83 30.1 0.0
28 14:55 N 9 10.00 Mostly Cloudy FEW065 BKN085 84.2 62.6 48% 85 30.11 0.0
28 14:35 N 6 10.00 Partly Cloudy FEW047 FEW065 SCT085 82.4 64.4 55% 84 30.11 0.0
28 14:13 Vrbl 3 10.00 Partly Cloudy FEW070 SCT080 82.4 66.2 58% 85 30.11 0.0
28 13:56 N 6 10.00 Mostly Cloudy FEW070 BKN080 84.2 66.2 55% 87 30.11 0.0
28 13:35 N 8 10.00 Mostly Cloudy FEW041 FEW050 BKN080 84.2 64.4 51% 86 30.11 0.0
28 13:15 Vrbl 3 10.00 Partly Cloudy FEW048 SCT080 82.4 66.2 58% 85 30.12 0.0
28 12:56 Vrbl 5 10.00 A Few Clouds FEW048 82.4 66.2 58% 85 30.12 0.0
28 12:35 NE 6 10.00 A Few Clouds FEW034 80.6 68 66% 83 30.12 0.0
28 12:15 N 5 10.00 Partly Cloudy SCT034 80.6 68 66% 83 30.12 0.0
28 11:55 Vrbl 3 10.00 Fair CLR 80.6 68 66% 83 30.12 0.0
28 04:36 NW 1 9.00 Overcast OVC090 64.4 64.4 100% 30.03 0.0
28 04:15 N 5 10.00 Mostly Cloudy BKN090 64.4 64.4 100% 30.02 0.0
28 03:55 N 5 9.00 Fair CLR 64.4 64.4 100% 30.01 0.0
28 03:35 N 3 9.00 Fair CLR 64.4 64.4 100% 30.01 0.0
28 03:15 N 5 9.00 Fair CLR 64.4 64.4 100% 30.01 0.0
28 02:55 N 5 10.00 Fair CLR 64.4 64.4 100% 30.02 0.0
28 02:35 N 6 9.00 Fair CLR 64.4 64.4 100% 30.02 0.0
28 02:15 N 5 10.00 Fair CLR 64.4 64.4 100% 30.02 0.0
Date Time (edt) Wind (mph) Vis. (mi.) Weather Sky Cond. Air Dwpt Max. Min. Relative Humidity Wind Chill (°F) Heat Index (°F) altimeter (in) sea level (mb) 1 hr 3 hr 6 hr
6 hour
Temperature (ºF) Pressure Precipitation (in)